Time;durP1;ratioP1;P1;durP2;ratioP2;P2;SDS_P1;SDS_P2;PMS_P1;PMS_P2;Temp;Humidity;BMP_temperature;BMP_pressure;BME280_temperature;BME280_humidity;BME280_pressure;Samples;Min_cycle;Max_cycle;Signal;HPM_P1;HPM_P2
2022/01/16 00:00:09;;;;;;;46.13;28.55;;;;;;;;;;5051427;28;20087;-59
2022/01/16 00:05:10;;;;;;;46.35;29.65;;;;;;;;;;5050446;28;20049;-60
2022/01/16 00:07:38;;;;;;;45.22;28.58;;;;;;;;;;5050195;28;20106;-60
2022/01/16 00:10:05;;;;;;;45.85;29.30;;;;;;;;;;5051239;28;20099;-60
2022/01/16 00:12:38;;;;;;;49.92;30.55;;;;;;;;;;5050587;28;20045;-60
2022/01/16 00:15:04;;;;;;;43.15;28.27;;;;;;;;;;5050954;28;20660;-60
2022/01/16 00:17:41;;;;;;;43.15;28.25;;;;;;;;;;5051249;28;20114;-60
2022/01/16 00:20:08;;;;;;;45.88;29.40;;;;;;;;;;5050506;28;20057;-60
2022/01/16 00:22:38;;;;;;;46.53;29.13;;;;;;;;;;5050813;28;20106;-60
2022/01/16 00:25:07;;;;;;;44.08;28.05;;;;;;;;;;5050691;28;20045;-60
2022/01/16 00:27:34;;;;;;;42.83;27.45;;;;;;;;;;5049863;28;20041;-60
2022/01/16 00:30:00;;;;;;;42.72;28.25;;;;;;;;;;5050614;28;20110;-60
2022/01/16 00:32:26;;;;;;;45.22;28.90;;;;;;;;;;5050733;28;20041;-60
2022/01/16 00:34:52;;;;;;;44.22;28.23;;;;;;;;;;5050247;28;20103;-60
2022/01/16 00:37:21;;;;;;;46.03;29.17;;;;;;;;;;5050779;28;20098;-60
2022/01/16 00:39:52;;;;;;;47.40;29.13;;;;;;;;;;5049545;28;20454;-60
2022/01/16 00:42:20;;;;;;;42.33;27.95;;;;;;;;;;5050969;28;20041;-60
2022/01/16 00:44:46;;;;;;;44.25;28.67;;;;;;;;;;5050529;28;20045;-59
2022/01/16 00:47:12;;;;;;;42.97;26.92;;;;;;;;;;5050058;28;20045;-60
2022/01/16 00:49:39;;;;;;;42.95;27.10;;;;;;;;;;5051163;28;20049;-59
2022/01/16 00:52:05;;;;;;;41.17;26.55;;;;;;;;;;5050239;28;20476;-59
2022/01/16 00:54:32;;;;;;;45.45;28.38;;;;;;;;;;5050179;28;20049;-60
2022/01/16 00:56:58;;;;;;;42.60;27.33;;;;;;;;;;5049536;28;20098;-60
2022/01/16 00:59:34;;;;;;;42.15;27.05;;;;;;;;;;5049374;28;20098;-60
2022/01/16 01:02:00;;;;;;;41.53;26.63;;;;;;;;;;5049701;28;20049;-60
2022/01/16 01:04:29;;;;;;;43.20;28.67;;;;;;;;;;5050544;28;20131;-60
2022/01/16 01:06:55;;;;;;;44.63;27.38;;;;;;;;;;5049961;28;20053;-60
2022/01/16 01:09:21;;;;;;;40.20;26.52;;;;;;;;;;5049762;28;20132;-60
2022/01/16 01:11:50;;;;;;;40.20;26.60;;;;;;;;;;5050198;28;20385;-60
2022/01/16 01:14:24;;;;;;;41.65;26.55;;;;;;;;;;5050598;28;20049;-60
2022/01/16 01:16:54;;;;;;;43.15;27.92;;;;;;;;;;5049469;28;20132;-60
2022/01/16 01:19:21;;;;;;;43.58;27.25;;;;;;;;;;5050531;28;20489;-60
2022/01/16 01:21:51;;;;;;;41.50;26.58;;;;;;;;;;5049900;28;20500;-60
2022/01/16 01:24:18;;;;;;;39.72;26.45;;;;;;;;;;5050473;28;20065;-60
2022/01/16 01:26:52;;;;;;;40.70;26.58;;;;;;;;;;5049992;28;20056;-60
2022/01/16 01:29:21;;;;;;;36.95;24.98;;;;;;;;;;5049858;28;20095;-60
2022/01/16 01:32:01;;;;;;;43.45;27.42;;;;;;;;;;5050071;28;20423;-60
2022/01/16 01:34:27;;;;;;;41.63;26.10;;;;;;;;;;5050458;28;20179;-60
2022/01/16 01:36:58;;;;;;;43.88;27.25;;;;;;;;;;5049048;28;20049;-60
2022/01/16 01:39:31;;;;;;;44.25;27.42;;;;;;;;;;5050100;28;20507;-60
2022/01/16 01:42:06;;;;;;;40.47;25.52;;;;;;;;;;5050214;28;20056;-60
2022/01/16 01:52:49;;;;;;;42.83;26.50;;;;;;;;;;5050101;28;20052;-60
2022/01/16 01:55:18;;;;;;;39.40;25.75;;;;;;;;;;5052636;28;20087;-60
2022/01/16 01:57:44;;;;;;;42.28;25.48;;;;;;;;;;5051942;28;20049;-61
2022/01/16 02:00:17;;;;;;;41.75;26.67;;;;;;;;;;5053248;28;20044;-60
2022/01/16 02:02:58;;;;;;;37.80;23.98;;;;;;;;;;5053551;28;20076;-60
2022/01/16 02:05:24;;;;;;;38.83;25.27;;;;;;;;;;5053143;28;20145;-60
2022/01/16 02:07:51;;;;;;;39.15;25.48;;;;;;;;;;5053530;28;20044;-60
2022/01/16 02:10:18;;;;;;;39.20;24.88;;;;;;;;;;5053872;28;20049;-60
2022/01/16 02:12:46;;;;;;;39.67;25.27;;;;;;;;;;5052189;28;20491;-60
2022/01/16 02:15:34;;;;;;;38.40;25.40;;;;;;;;;;5053632;28;20048;-60
2022/01/16 02:29:33;;;;;;;;;;;;;;;;;;5053247;28;19919;-60
2022/01/16 02:32:00;;;;;;;;;;;;;;;;;;5053086;28;20538;-60
2022/01/16 02:34:34;;;;;;;;;;;;;;;;;;5052695;28;20010;-60
2022/01/16 02:37:03;;;;;;;;;;;;;;;;;;5053556;28;19921;-60
2022/01/16 02:39:29;;;;;;;;;;;;;;;;;;5052773;28;19924;-60
2022/01/16 02:41:58;;;;;;;;;;;;;;;;;;5053348;28;20331;-60
2022/01/16 02:44:33;;;;;;;;;;;;;;;;;;5053476;28;20023;-60
2022/01/16 02:47:01;;;;;;;;;;;;;;;;;;5052340;28;19920;-61
2022/01/16 02:49:31;;;;;;;;;;;;;;;;;;5052956;28;19927;-60
2022/01/16 02:51:57;;;;;;;;;;;;;;;;;;5053049;28;19921;-60
2022/01/16 02:54:24;;;;;;;;;;;;;;;;;;5052271;28;19921;-60
2022/01/16 02:56:50;;;;;;;;;;;;;;;;;;5053046;28;19921;-60
2022/01/16 02:59:20;;;;;;;;;;;;;;;;;;5052831;28;19927;-60
2022/01/16 03:01:46;;;;;;;;;;;;;;;;;;5052349;28;20132;-60
2022/01/16 03:04:12;;;;;;;;;;;;;;;;;;5050714;28;19975;-60
2022/01/16 03:06:38;;;;;;;;;;;;;;;;;;5051279;28;19929;-60
2022/01/16 03:09:07;;;;;;;;;;;;;;;;;;5050255;28;19924;-60
2022/01/16 03:11:36;;;;;;;;;;;;;;;;;;5052984;28;19927;-60
2022/01/16 03:14:02;;;;;;;;;;;;;;;;;;5052861;28;20287;-60
2022/01/16 03:16:28;;;;;;;;;;;;;;;;;;5052179;28;19971;-60
2022/01/16 03:21:54;;;;;;;;;;;;;;;;;;5051999;28;20296;-60
2022/01/16 03:24:21;;;;;;;;;;;;;;;;;;5052354;28;19925;-59
2022/01/16 03:26:48;;;;;;;;;;;;;;;;;;5051749;28;20016;-60
2022/01/16 03:29:14;;;;;;;;;;;;;;;;;;5051690;28;19976;-60
2022/01/16 03:31:40;;;;;;;;;;;;;;;;;;5050955;28;19990;-60
2022/01/16 03:34:06;;;;;;;;;;;;;;;;;;5050818;28;20148;-60
2022/01/16 03:36:32;;;;;;;;;;;;;;;;;;5049926;28;20292;-60
2022/01/16 03:38:58;;;;;;;;;;;;;;;;;;5050632;28;19966;-60
2022/01/16 03:41:27;;;;;;;;;;;;;;;;;;5050660;28;20366;-60
2022/01/16 03:43:53;;;;;;;;;;;;;;;;;;5050131;28;19920;-60
2022/01/16 03:46:19;;;;;;;;;;;;;;;;;;5052068;28;19920;-60
2022/01/16 03:48:45;;;;;;;;;;;;;;;;;;5052040;28;19920;-60
2022/01/16 03:51:11;;;;;;;;;;;;;;;;;;5050669;28;20367;-61
2022/01/16 03:53:38;;;;;;;;;;;;;;;;;;5052415;28;19966;-60
2022/01/16 03:56:05;;;;;;;;;;;;;;;;;;5051574;28;20022;-60
2022/01/16 03:58:31;;;;;;;;;;;;;;;;;;5051274;28;19928;-60
2022/01/16 04:00:57;;;;;;;;;;;;;;;;;;5051628;28;19924;-60
2022/01/16 04:03:23;;;;;;;;;;;;;;;;;;5052255;28;19924;-60
2022/01/16 04:05:49;;;;;;;;;;;;;;;;;;5050991;28;19925;-59
2022/01/16 04:08:17;;;;;;;;;;;;;;;;;;5051878;28;20323;-60
2022/01/16 04:10:46;;;;;;;;;;;;;;;;;;5050788;28;19928;-60
2022/01/16 04:13:19;;;;;;;;;;;;;;;;;;5051776;28;19967;-60
2022/01/16 04:15:49;;;;;;;;;;;;;;;;;;5051186;28;19974;-60
2022/01/16 04:18:15;;;;;;;;;;;;;;;;;;5050963;28;19924;-60
2022/01/16 04:20:43;;;;;;;;;;;;;;;;;;5051617;28;19921;-60
2022/01/16 04:23:10;;;;;;;;;;;;;;;;;;5051544;28;19974;-60
2022/01/16 04:25:36;;;;;;;;;;;;;;;;;;5051126;28;19990;-60
2022/01/16 04:28:02;;;;;;;;;;;;;;;;;;5050879;28;19925;-60
2022/01/16 04:30:31;;;;;;;;;;;;;;;;;;5051751;28;19983;-60
2022/01/16 04:32:57;;;;;;;;;;;;;;;;;;5050496;28;19924;-60
2022/01/16 04:35:25;;;;;;;;;;;;;;;;;;5051362;28;19921;-60
2022/01/16 04:37:51;;;;;;;;;;;;;;;;;;5051061;28;19943;-60
2022/01/16 04:40:18;;;;;;;;;;;;;;;;;;5050684;28;19920;-60
2022/01/16 04:45:27;;;;;;;;;;;;;;;;;;5051539;28;19993;-60
2022/01/16 04:47:53;;;;;;;;;;;;;;;;;;5050067;28;19944;-60
2022/01/16 04:50:21;;;;;;;;;;;;;;;;;;5051068;28;20391;-60
2022/01/16 04:52:48;;;;;;;;;;;;;;;;;;5049681;28;20011;-60
2022/01/16 04:55:14;;;;;;;;;;;;;;;;;;5049984;28;19970;-60
2022/01/16 04:57:41;;;;;;;;;;;;;;;;;;5049951;28;19943;-60
2022/01/16 05:00:07;;;;;;;;;;;;;;;;;;5049888;28;19920;-60
2022/01/16 05:02:33;;;;;;;;;;;;;;;;;;5051216;28;19921;-60
2022/01/16 05:05:01;;;;;;;;;;;;;;;;;;5050641;28;19921;-60
2022/01/16 05:07:27;;;;;;;;;;;;;;;;;;5050238;28;19932;-60
2022/01/16 05:09:53;;;;;;;;;;;;;;;;;;5051249;28;19974;-60
2022/01/16 05:12:27;;;;;;;;;;;;;;;;;;5049974;28;19920;-60
2022/01/16 05:17:51;;;;;;;;;;;;;;;;;;4988725;28;19928;-60
2022/01/16 05:20:17;;;;;;;;;;;;;;;;;;4989209;28;19922;-60
2022/01/16 05:22:43;;;;;;;;;;;;;;;;;;5013910;28;19927;-60
2022/01/16 05:25:12;;;;;;;;;;;;;;;;;;5051013;28;19921;-60
2022/01/16 05:27:38;;;;;;;;;;;;;;;;;;5051149;28;19927;-60
2022/01/16 05:30:07;;;;;;;;;;;;;;;;;;5053041;28;20335;-59
2022/01/16 05:32:33;;;;;;;;;;;;;;;;;;5054546;28;20279;-60
2022/01/16 05:34:59;;;;;;;;;;;;;;;;;;5053519;28;20015;-60
2022/01/16 05:37:34;;;;;;;;;;;;;;;;;;5053823;28;19978;-60
2022/01/16 05:40:00;;;;;;;;;;;;;;;;;;5054088;28;19921;-60
2022/01/16 05:42:26;;;;;;;;;;;;;;;;;;5053241;28;19921;-60
2022/01/16 05:44:52;;;;;;;;;;;;;;;;;;5052646;28;20322;-60
2022/01/16 05:47:18;;;;;;;;;;;;;;;;;;5053207;28;19975;-60
2022/01/16 05:49:44;;;;;;;;;;;;;;;;;;5052043;28;20375;-60
2022/01/16 05:52:12;;;;;;;;;;;;;;;;;;5054176;28;19924;-60
2022/01/16 05:54:38;;;;;;;;;;;;;;;;;;5054319;28;19920;-60
2022/01/16 05:57:06;;;;;;;;;;;;;;;;;;5053398;28;19921;-62
2022/01/16 05:59:32;;;;;;;;;;;;;;;;;;5054146;28;19927;-60
2022/01/16 06:02:04;;;;;;;;;;;;;;;;;;5054132;28;19921;-61
2022/01/16 06:04:30;;;;;;;;;;;;;;;;;;5053503;28;19963;-60
2022/01/16 06:06:56;;;;;;;;;;;;;;;;;;5054876;28;19932;-60
2022/01/16 06:09:22;;;;;;;;;;;;;;;;;;5053808;28;19921;-60
2022/01/16 06:11:48;;;;;;;;;;;;;;;;;;5053057;28;20388;-60
2022/01/16 06:14:14;;;;;;;;;;;;;;;;;;5053351;28;19921;-60
2022/01/16 06:16:40;;;;;;;;;;;;;;;;;;5054252;28;19920;-61
2022/01/16 06:19:06;;;;;;;;;;;;;;;;;;5053128;28;19920;-60
2022/01/16 06:21:32;;;;;;;;;;;;;;;;;;5053855;28;19921;-60
2022/01/16 06:23:58;;;;;;;;;;;;;;;;;;5053626;28;19986;-60
2022/01/16 06:26:25;;;;;;;;;;;;;;;;;;5051599;28;19924;-60
2022/01/16 06:28:51;;;;;;;;;;;;;;;;;;5053825;28;19924;-60
2022/01/16 06:31:17;;;;;;;;;;;;;;;;;;5053074;28;19920;-60
2022/01/16 06:33:43;;;;;;;;;;;;;;;;;;5053720;28;19974;-60
2022/01/16 06:36:09;;;;;;;;;;;;;;;;;;5053739;28;20261;-60
2022/01/16 06:38:35;;;;;;;;;;;;;;;;;;5053008;28;19955;-59
2022/01/16 06:41:01;;;;;;;;;;;;;;;;;;5053404;28;19925;-60
2022/01/16 06:43:27;;;;;;;;;;;;;;;;;;5053546;28;19924;-60
2022/01/16 06:45:54;;;;;;;;;;;;;;;;;;5052789;28;19928;-60
2022/01/16 06:48:20;;;;;;;;;;;;;;;;;;5053901;28;19920;-60
2022/01/16 06:50:46;;;;;;;;;;;;;;;;;;5053293;28;19986;-60
2022/01/16 06:53:12;;;;;;;;;;;;;;;;;;5052925;28;19974;-60
2022/01/16 06:55:38;;;;;;;;;;;;;;;;;;5053308;28;19921;-60
2022/01/16 06:58:04;;;;;;;;;;;;;;;;;;5053089;28;19924;-60
2022/01/16 07:00:31;;;;;;;;;;;;;;;;;;5052326;28;20576;-60
2022/01/16 07:02:57;;;;;;;;;;;;;;;;;;5053370;28;19924;-59
2022/01/16 07:05:23;;;;;;;;;;;;;;;;;;5052966;28;19967;-60
2022/01/16 07:07:49;;;;;;;;;;;;;;;;;;5052455;28;19921;-60
2022/01/16 07:10:15;;;;;;;;;;;;;;;;;;5053287;28;19920;-60
2022/01/16 07:12:41;;;;;;;;;;;;;;;;;;5053025;28;19947;-60
2022/01/16 07:15:07;;;;;;;;;;;;;;;;;;5052442;28;19921;-60
2022/01/16 07:17:33;;;;;;;;;;;;;;;;;;5052853;28;19974;-60
2022/01/16 07:19:59;;;;;;;;;;;;;;;;;;5052941;28;19925;-60
2022/01/16 07:22:25;;;;;;;;;;;;;;;;;;5052098;28;19921;-60
2022/01/16 07:24:51;;;;;;;;;;;;;;;;;;5052737;28;19967;-60
2022/01/16 07:27:18;;;;;;;;;;;;;;;;;;5052553;28;19967;-60
2022/01/16 07:29:44;;;;;;;;;;;;;;;;;;5051971;28;19924;-60
2022/01/16 07:32:10;;;;;;;;;;;;;;;;;;5052709;28;19920;-60
2022/01/16 07:34:36;;;;;;;;;;;;;;;;;;5052228;28;19986;-60
2022/01/16 07:37:02;;;;;;;;;;;;;;;;;;5052452;28;19986;-60
2022/01/16 07:39:28;;;;;;;;;;;;;;;;;;5052540;28;20512;-60
2022/01/16 07:41:54;;;;;;;;;;;;;;;;;;5051748;28;19925;-60
2022/01/16 07:44:20;;;;;;;;;;;;;;;;;;5052847;28;19920;-60
2022/01/16 07:46:46;;;;;;;;;;;;;;;;;;5052307;28;19994;-60
2022/01/16 07:49:12;;;;;;;;;;;;;;;;;;5052107;28;19994;-60
2022/01/16 07:51:38;;;;;;;;;;;;;;;;;;5052022;28;19921;-60
2022/01/16 07:54:04;;;;;;;;;;;;;;;;;;5052157;28;20081;-60
2022/01/16 07:56:30;;;;;;;;;;;;;;;;;;5052094;28;19979;-60
2022/01/16 07:58:57;;;;;;;;;;;;;;;;;;5052293;28;19927;-60
2022/01/16 08:01:23;;;;;;;;;;;;;;;;;;5052469;28;20351;-60
2022/01/16 08:03:49;;;;;;;;;;;;;;;;;;5051342;28;19924;-60
2022/01/16 08:06:15;;;;;;;;;;;;;;;;;;5052186;28;20272;-59
2022/01/16 08:08:41;;;;;;;;;;;;;;;;;;5052178;28;19967;-60
2022/01/16 08:11:09;;;;;;;;;;;;;;;;;;5051740;28;19928;-59
2022/01/16 08:13:35;;;;;;;;;;;;;;;;;;5051955;28;19924;-60
2022/01/16 08:16:01;;;;;;;;;;;;;;;;;;5052048;28;19951;-60
2022/01/16 08:18:27;;;;;;;;;;;;;;;;;;5051133;28;19924;-60
2022/01/16 08:20:53;;;;;;;;;;;;;;;;;;5051845;28;19920;-60
2022/01/16 08:23:19;;;;;;;;;;;;;;;;;;5051901;28;19920;-60
2022/01/16 08:25:45;;;;;;;;;;;;;;;;;;5051113;28;19975;-60
2022/01/16 08:28:11;;;;;;;;;;;;;;;;;;5051870;28;19921;-60
2022/01/16 08:30:37;;;;;;;;;;;;;;;;;;5051970;28;19925;-60
2022/01/16 08:33:03;;;;;;;;;;;;;;;;;;5050819;28;19970;-60
2022/01/16 08:35:29;;;;;;;;;;;;;;;;;;5051880;28;19998;-59
2022/01/16 08:37:55;;;;;;;;;;;;;;;;;;5050627;28;19924;-59
2022/01/16 08:40:21;;;;;;;;;;;;;;;;;;5051728;28;19928;-59
2022/01/16 08:42:48;;;;;;;;;;;;;;;;;;5051095;28;20364;-59
2022/01/16 08:45:14;;;;;;;;;;;;;;;;;;5051049;28;20728;-60
2022/01/16 08:47:40;;;;;;;;;;;;;;;;;;5051848;28;19925;-58
2022/01/16 08:50:06;;;;;;;;;;;;;;;;;;5051393;28;19921;-58
2022/01/16 08:52:32;;;;;;;;;;;;;;;;;;5050884;28;19920;-58
2022/01/16 08:54:58;;;;;;;;;;;;;;;;;;5051283;28;19924;-59
2022/01/16 08:57:24;;;;;;;;;;;;;;;;;;5051639;28;19921;-60
2022/01/16 08:59:50;;;;;;;;;;;;;;;;;;5050519;28;19924;-60
2022/01/16 09:02:16;;;;;;;;;;;;;;;;;;5051815;28;20352;-60
2022/01/16 09:04:42;;;;;;;;;;;;;;;;;;5055371;28;19982;-58
2022/01/16 09:07:08;;;;;;;;;;;;;;;;;;5054773;28;20417;-59
2022/01/16 09:09:35;;;;;;;;;;;;;;;;;;5055681;28;19924;-59
2022/01/16 09:12:01;;;;;;;;;;;;;;;;;;5055439;28;19951;-59
2022/01/16 09:14:27;;;;;;;;;;;;;;;;;;5054763;28;19921;-59
2022/01/16 09:16:53;;;;;;;;;;;;;;;;;;5055226;28;19976;-59
2022/01/16 09:19:19;;;;;;;;;;;;;;;;;;5055411;28;19920;-59
2022/01/16 09:21:45;;;;;;;;;;;;;;;;;;5054350;28;19924;-59
2022/01/16 09:24:11;;;;;;;;;;;;;;;;;;5055556;28;19921;-59
2022/01/16 09:26:37;;;;;;;;;;;;;;;;;;5055574;28;20363;-59
2022/01/16 09:29:03;;;;;;;;;;;;;;;;;;5054347;28;19982;-59
2022/01/16 09:31:29;;;;;;;;;;;;;;;;;;5055021;28;20341;-59
2022/01/16 09:33:56;;;;;;;;;;;;;;;;;;5054875;28;19921;-59
2022/01/16 09:36:22;;;;;;;;;;;;;;;;;;5054175;28;19920;-59
2022/01/16 09:38:48;;;;;;;;;;;;;;;;;;5055227;28;19925;-59
2022/01/16 09:41:14;;;;;;;;;;;;;;;;;;5054270;28;19971;-59
2022/01/16 09:43:40;;;;;;;;;;;;;;;;;;5055213;28;19971;-60
2022/01/16 09:46:06;;;;;;;;;;;;;;;;;;5054569;28;20423;-60
2022/01/16 09:48:32;;;;;;;;;;;;;;;;;;5054251;28;19943;-59
2022/01/16 09:50:59;;;;;;;;;;;;;;;;;;5054445;28;19924;-60
2022/01/16 09:53:25;;;;;;;;;;;;;;;;;;5055082;28;20272;-60
2022/01/16 09:55:51;;;;;;;;;;;;;;;;;;5053758;28;19967;-60
2022/01/16 09:58:17;;;;;;;;;;;;;;;;;;5054863;28;20330;-58
2022/01/16 10:00:43;;;;;;;;;;;;;;;;;;5054192;28;19921;-58
2022/01/16 10:03:10;;;;;;;;;;;;;;;;;;5053915;28;20388;-58
2022/01/16 10:05:36;;;;;;;;;;;;;;;;;;5054404;28;19927;-58
2022/01/16 10:08:02;;;;;;;;;;;;;;;;;;5054251;28;20379;-59
2022/01/16 10:10:29;;;;;;;;;;;;;;;;;;5053806;28;19974;-59
2022/01/16 10:13:03;;;;;;;;;;;;;;;;;;5054210;28;19927;-57
2022/01/16 10:15:29;;;;;;;;;;;;;;;;;;5054295;28;20022;-59
2022/01/16 10:17:55;;;;;;;;;;;;;;;;;;5053318;28;19947;-63
2022/01/16 10:20:21;;;;;;;;;;;;;;;;;;5054428;28;19975;-59
2022/01/16 10:22:47;;;;;;;;;;;;;;;;;;5054191;28;19976;-60
2022/01/16 10:25:13;;;;;;;;;;;;;;;;;;5053621;28;19983;-59
2022/01/16 10:27:39;;;;;;;;;;;;;;;;;;5054286;28;19920;-60
2022/01/16 10:30:07;;;;;;;;;;;;;;;;;;5052483;28;19983;-60
2022/01/16 10:32:33;;;;;;;;;;;;;;;;;;5053104;28;19955;-58
2022/01/16 10:34:59;;;;;;;;;;;;;;;;;;5053670;28;20367;-59
2022/01/16 10:37:25;;;;;;;;;;;;;;;;;;5053895;28;19920;-58
2022/01/16 10:39:51;;;;;;;;;;;;;;;;;;5053607;28;19944;-58
2022/01/16 10:42:18;;;;;;;;;;;;;;;;;;5053905;28;19920;-59
2022/01/16 10:44:44;;;;;;;;;;;;;;;;;;5052802;28;20240;-59
2022/01/16 10:47:10;;;;;;;;;;;;;;;;;;5053546;28;20359;-58
2022/01/16 10:49:36;;;;;;;;;;;;;;;;;;5054162;28;19929;-58
2022/01/16 10:52:02;;;;;;;;;;;;;;;;;;5052554;28;20467;-58
2022/01/16 10:54:28;;;;;;;;;;;;;;;;;;5054039;28;19927;-58
2022/01/16 10:56:54;;;;;;;;;;;;;;;;;;5053144;28;19967;-58
2022/01/16 10:59:20;;;;;;;;;;;;;;;;;;5053120;28;19920;-58
2022/01/16 11:01:46;;;;;;;;;;;;;;;;;;5053105;28;19925;-58
2022/01/16 11:04:12;;;;;;;;;;;;;;;;;;5053825;28;19931;-58
2022/01/16 11:06:39;;;;;;;;;;;;;;;;;;5052466;28;20360;-58
2022/01/16 11:09:05;;;;;;;;;;;;;;;;;;5053425;28;19974;-58
2022/01/16 11:11:32;;;;;;;;;;;;;;;;;;5053332;28;20433;-58
2022/01/16 11:14:04;;;;;;;;;;;;;;;;;;5052180;28;20443;-57
2022/01/16 11:16:30;;;;;;;;;;;;;;;;;;5053192;28;20442;-57
2022/01/16 11:18:56;;;;;;;;;;;;;;;;;;5053230;28;19924;-58
2022/01/16 11:21:31;;;;;;;;;;;;;;;;;;5052420;28;20272;-58
2022/01/16 11:24:01;;;;;;;;;;;;;;;;;;5052830;28;20046;-59
2022/01/16 11:26:27;;;;;;;;;;;;;;;;;;5052183;28;19920;-58
2022/01/16 11:28:53;;;;;;;;;;;;;;;;;;5051928;28;19980;-58
2022/01/16 11:31:19;;;;;;;;;;;;;;;;;;5053230;28;19920;-60
2022/01/16 11:33:45;;;;;;;;;;;;;;;;;;5052139;28;19920;-61
2022/01/16 11:36:12;;;;;;;;;;;;;;;;;;5053112;28;19975;-58
2022/01/16 11:38:39;;;;;;;;;;;;;;;;;;5053060;28;19921;-59
2022/01/16 11:41:05;;;;;;;;;;;;;;;;;;5051791;28;19928;-59
2022/01/16 11:43:31;;;;;;;;;;;;;;;;;;5052508;28;20379;-59
2022/01/16 11:45:57;;;;;;;;;;;;;;;;;;5052553;28;19920;-59
2022/01/16 11:48:23;;;;;;;;;;;;;;;;;;5051753;28;20505;-58
2022/01/16 11:50:49;;;;;;;;;;;;;;;;;;5052425;28;19966;-58
2022/01/16 11:53:15;;;;;;;;;;;;;;;;;;5052387;28;20379;-58
2022/01/16 11:55:41;;;;;;;;;;;;;;;;;;5051539;28;19974;-58
2022/01/16 11:58:07;;;;;;;;;;;;;;;;;;5051121;28;20367;-58
2022/01/16 12:00:33;;;;;;;;;;;;;;;;;;5051965;28;19921;-58
2022/01/16 12:02:59;;;;;;;;;;;;;;;;;;5051180;28;19975;-58
2022/01/16 12:05:26;;;;;;;;;;;;;;;;;;5052454;28;20272;-58
2022/01/16 12:07:52;;;;;;;;;;;;;;;;;;5052052;28;19959;-58
2022/01/16 12:10:18;;;;;;;;;;;;;;;;;;5051554;28;19926;-58
2022/01/16 12:12:44;;;;;;;;;;;;;;;;;;5052122;28;19967;-58
2022/01/16 12:15:10;;;;;;;;;;;;;;;;;;5051961;28;20388;-58
2022/01/16 12:17:38;;;;;;;;;;;;;;;;;;5051346;28;19920;-57
2022/01/16 12:20:05;;;;;;;;;;;;;;;;;;5051661;28;19927;-58
2022/01/16 12:22:31;;;;;;;;;;;;;;;;;;5052418;28;19967;-58
2022/01/16 12:24:57;;;;;;;;;;;;;;;;;;5050800;28;19924;-58
2022/01/16 12:27:23;;;;;;;;;;;;;;;;;;5052349;28;19921;-58
2022/01/16 12:29:49;;;;;;;;;;;;;;;;;;5051666;28;19951;-58
2022/01/16 12:32:15;;;;;;;;;;;;;;;;;;5051147;28;19967;-58
2022/01/16 12:34:41;;;;;;;;;;;;;;;;;;5051789;28;19921;-58
2022/01/16 12:37:07;;;;;;;;;;;;;;;;;;5051465;28;19967;-58
2022/01/16 12:39:33;;;;;;;;;;;;;;;;;;5051621;28;19929;-59
2022/01/16 12:42:01;;;;;;;;;;;;;;;;;;5051718;28;19924;-59
2022/01/16 12:44:27;;;;;;;;;;;;;;;;;;5051134;28;20364;-58
2022/01/16 12:46:54;;;;;;;;;;;;;;;;;;5051587;28;19924;-58
2022/01/16 12:49:20;;;;;;;;;;;;;;;;;;5051600;28;19921;-58
2022/01/16 12:51:46;;;;;;;;;;;;;;;;;;5050684;28;20130;-58
2022/01/16 12:54:12;;;;;;;;;;;;;;;;;;5051556;28;19925;-58
2022/01/16 12:56:38;;;;;;;;;;;;;;;;;;5051472;28;19966;-58
2022/01/16 12:59:05;;;;;;;;;;;;;;;;;;5050478;28;19920;-58
2022/01/16 13:01:31;;;;;;;;;;;;;;;;;;5051504;28;20019;-59
2022/01/16 13:03:57;;;;;;;;;;;;;;;;;;5051394;28;19920;-58
2022/01/16 13:06:24;;;;;;;;;;;;;;;;;;5050461;28;19925;-58
2022/01/16 13:08:50;;;;;;;;;;;;;;;;;;5051016;28;19928;-58
2022/01/16 13:11:16;;;;;;;;;;;;;;;;;;5051556;28;20172;-58
2022/01/16 13:13:42;;;;;;;;;;;;;;;;;;5050674;28;19920;-58
2022/01/16 13:16:08;;;;;;;;;;;;;;;;;;5051396;28;19942;-58
2022/01/16 13:18:34;;;;;;;;;;;;;;;;;;5051605;28;19921;-58
2022/01/16 13:21:04;;;;;;;;;;;;;;;;;;5050265;28;19921;-58
2022/01/16 13:23:30;;;;;;;;;;;;;;;;;;5051490;28;19928;-58
2022/01/16 13:25:56;;;;;;;;;;;;;;;;;;5050847;28;19920;-58
2022/01/16 13:28:22;;;;;;;;;;;;;;;;;;5050868;28;19925;-58
2022/01/16 13:30:48;;;;;;;;;;;;;;;;;;5050893;28;19920;-58
2022/01/16 13:33:14;;;;;;;;;;;;;;;;;;5051441;28;20184;-58
2022/01/16 13:35:41;;;;;;;;;;;;;;;;;;5050811;28;19963;-58
2022/01/16 13:38:07;;;;;;;;;;;;;;;;;;5051735;28;19974;-58
2022/01/16 13:40:33;;;;;;;;;;;;;;;;;;5049846;28;19925;-58
2022/01/16 13:43:03;;;;;;;;;;;;;;;;;;5050866;28;20269;-57
2022/01/16 13:45:30;;;;;;;;;;;;;;;;;;5051207;28;19924;-58
2022/01/16 13:47:56;;;;;;;;;;;;;;;;;;5049944;28;19928;-58
2022/01/16 13:50:22;;;;;;;;;;;;;;;;;;5054574;28;19966;-58
2022/01/16 13:52:49;;;;;;;;;;;;;;;;;;5055035;28;19921;-58
2022/01/16 13:55:15;;;;;;;;;;;;;;;;;;5054456;28;19924;-58
2022/01/16 13:57:41;;;;;;;;;;;;;;;;;;5054608;28;19924;-58
2022/01/16 14:00:07;;;;;;;;;;;;;;;;;;5054820;28;20024;-58
2022/01/16 14:02:33;;;;;;;;;;;;;;;;;;5053752;28;19924;-58
2022/01/16 14:05:00;;;;;;;;;;;;;;;;;;5054208;28;19920;-59
2022/01/16 14:07:26;;;;;;;;;;;;;;;;;;5054494;28;20296;-59
2022/01/16 14:09:55;;;;;;;;;;;;;;;;;;5053632;28;19951;-59
2022/01/16 14:12:21;;;;;;;;;;;;;;;;;;5054359;28;20016;-59
2022/01/16 14:14:48;;;;;;;;;;;;;;;;;;5054293;28;19966;-59
2022/01/16 14:20:22;;;;;;;;;;;;;;;;;;5054188;28;19924;-58
2022/01/16 14:22:48;;;;;;;;;;;;;;;;;;5053023;28;19921;-58
2022/01/16 14:25:14;;;;;;;;;;;;;;;;;;5054377;28;19924;-58
2022/01/16 14:27:40;;;;;;;;;;;;;;;;;;5054161;28;20372;-57
2022/01/16 14:30:07;;;;;;;;;;;;;;;;;;5053291;28;19967;-58
2022/01/16 14:32:33;;;;;;;;;;;;;;;;;;5054248;28;20326;-58
2022/01/16 14:34:59;;;;;;;;;;;;;;;;;;5053917;28;19967;-57
2022/01/16 14:37:25;;;;;;;;;;;;;;;;;;5053023;28;19963;-57
2022/01/16 14:39:52;;;;;;;;;;;;;;;;;;5053856;28;19921;-58
2022/01/16 14:42:18;;;;;;;;;;;;;;;;;;5053831;28;19955;-57
2022/01/16 14:44:44;;;;;;;;;;;;;;;;;;5052706;28;20039;-59
2022/01/16 14:47:11;;;;;;;;;;;;;;;;;;5054054;28;19925;-59
2022/01/16 14:49:37;;;;;;;;;;;;;;;;;;5053621;28;19928;-60
2022/01/16 14:52:03;;;;;;;;;;;;;;;;;;5052802;28;19978;-59
2022/01/16 14:54:29;;;;;;;;;;;;;;;;;;5053887;28;20406;-59
2022/01/16 14:56:55;;;;;;;;;;;;;;;;;;5053223;28;19924;-59
2022/01/16 14:59:21;;;;;;;;;;;;;;;;;;5052710;28;19920;-59
2022/01/16 15:01:47;;;;;;;;;;;;;;;;;;5053429;28;19967;-60
2022/01/16 15:04:13;;;;;;;;;;;;;;;;;;5053574;28;19967;-60
2022/01/16 15:06:39;;;;;;;;;;;;;;;;;;5052824;28;19921;-59
2022/01/16 15:09:06;;;;;;;;;;;;;;;;;;5053114;28;19921;-58
2022/01/16 15:11:32;;;;;;;;;;;;;;;;;;5053428;28;19947;-58
2022/01/16 15:14:01;;;;;;;;;;;;;;;;;;5051835;28;19928;-58
2022/01/16 15:16:27;;;;;;;;;;;;;;;;;;5053104;28;19960;-58
2022/01/16 15:18:56;;;;;;;;;;;;;;;;;;5052120;28;20280;-58
2022/01/16 15:21:29;;;;;;;;;;;;;;;;;;5053465;28;19920;-58
2022/01/16 15:23:55;;;;;;;;;;;;;;;;;;5052758;28;19924;-59
2022/01/16 15:26:21;;;;;;;;;;;;;;;;;;5052408;28;19928;-58
2022/01/16 15:28:47;;;;;;;;;;;;;;;;;;5052745;28;20359;-58
2022/01/16 15:31:14;;;;;;;;;;;;;;;;;;5053215;28;19967;-58
2022/01/16 15:33:40;;;;;;;;;;;;;;;;;;5052143;28;20007;-58
2022/01/16 15:36:06;;;;;;;;;;;;;;;;;;5053268;28;19929;-58
2022/01/16 15:38:34;;;;;;;;;;;;;;;;;;5052846;28;19925;-58
2022/01/16 15:41:01;;;;;;;;;;;;;;;;;;5051689;28;19920;-58
2022/01/16 15:43:27;;;;;;;;;;;;;;;;;;5052907;28;19986;-58
2022/01/16 15:45:53;;;;;;;;;;;;;;;;;;5052255;28;19932;-58
2022/01/16 15:48:19;;;;;;;;;;;;;;;;;;5052121;28;19920;-58
2022/01/16 15:50:48;;;;;;;;;;;;;;;;;;5052206;28;19920;-58
2022/01/16 15:53:14;;;;;;;;;;;;;;;;;;5052419;28;20426;-58
2022/01/16 15:55:40;;;;;;;;;;;;;;;;;;5051701;28;19925;-59
2022/01/16 15:58:06;;;;;;;;;;;;;;;;;;5051909;28;19943;-58
2022/01/16 16:00:33;;;;;;;;;;;;;;;;;;5052125;28;19924;-58
2022/01/16 16:02:59;;;;;;;;;;;;;;;;;;5051396;28;19963;-58
2022/01/16 16:05:25;;;;;;;;;;;;;;;;;;5051751;28;20422;-58
2022/01/16 16:07:51;;;;;;;;;;;;;;;;;;5051628;28;19927;-59
2022/01/16 16:10:18;;;;;;;;;;;;;;;;;;5051333;28;19924;-59
2022/01/16 16:12:46;;;;;;;;;;;;;;;;;;5051251;28;19946;-59
2022/01/16 16:15:13;;;;;;;;;;;;;;;;;;5051320;28;19920;-59
2022/01/16 16:17:39;;;;;;;;;;;;;;;;;;5052065;28;19990;-59
2022/01/16 16:20:05;;;;;;;;;;;;;;;;;;5051438;28;19928;-60
2022/01/16 16:22:31;;;;;;;;;;;;;;;;;;5051120;28;19925;-59
2022/01/16 16:24:57;;;;;;;;;;;;;;;;;;5051741;28;19951;-59
2022/01/16 16:27:23;;;;;;;;;;;;;;;;;;5051899;28;19928;-59
2022/01/16 16:29:49;;;;;;;;;;;;;;;;;;5050930;28;19920;-59
2022/01/16 16:32:15;;;;;;;;;;;;;;;;;;5051594;28;19997;-59
2022/01/16 16:34:41;;;;;;;;;;;;;;;;;;5051669;28;20354;-59
2022/01/16 16:37:07;;;;;;;;;;;;;;;;;;5042918;28;19920;-59
2022/01/16 16:39:33;;;;;;;;;;;;;;;;;;5051297;28;19920;-59
2022/01/16 16:42:01;;;;;;;;;;;;;;;;;;5051127;28;19920;-59
2022/01/16 16:44:28;;;;;;;;;;;;;;;;;;5050525;28;20023;-59
2022/01/16 16:46:54;;;;;;;;;;;;;;;;;;5051015;28;19920;-59
2022/01/16 16:49:20;;;;;;;;;;;;;;;;;;5051387;28;19921;-59
2022/01/16 16:51:46;;;;;;;;;;;;;;;;;;5049696;28;19975;-59
2022/01/16 16:54:12;;;;;;;;;;;;;;;;;;5051288;28;20334;-59